createdAt,value
2022-12-18T00:01:38.926Z,48.58
2022-12-18T00:04:07.782Z,50.22
2022-12-18T00:06:36.251Z,48.95
2022-12-18T00:09:04.991Z,45.40
2022-12-18T00:11:34.961Z,40.70
2022-12-18T00:14:02.667Z,47.55
2022-12-18T00:16:30.677Z,43.33
2022-12-18T00:18:59.985Z,44.58
2022-12-18T00:21:31.544Z,45.22
2022-12-18T00:24:02.144Z,46.50
2022-12-18T00:26:31.816Z,46.03
2022-12-18T00:29:01.453Z,42.60
2022-12-18T00:31:31.774Z,47.03
2022-12-18T00:34:02.055Z,44.25
2022-12-18T00:36:31.940Z,43.92
2022-12-18T00:39:00.622Z,42.83
2022-12-18T00:41:28.537Z,44.45
2022-12-18T00:43:56.043Z,48.80
2022-12-18T00:46:23.085Z,43.70
2022-12-18T00:48:50.586Z,45.88
2022-12-18T00:51:17.697Z,45.65
2022-12-18T00:53:45.103Z,50.35
2022-12-18T00:56:12.340Z,48.53
2022-12-18T00:58:42.148Z,47.95
2022-12-18T01:01:09.314Z,44.90
2022-12-18T01:03:39.360Z,45.38
2022-12-18T01:06:09.902Z,45.33
2022-12-18T01:08:37.548Z,51.55
2022-12-18T01:11:17.579Z,46.05
2022-12-18T01:13:45.197Z,50.55
2022-12-18T01:16:14.384Z,46.40
2022-12-18T01:18:41.830Z,52.10
2022-12-18T01:21:10.929Z,46.03
2022-12-18T01:23:38.880Z,54.25
2022-12-18T01:26:17.119Z,45.70
2022-12-18T01:28:45.291Z,51.72
2022-12-18T01:31:24.985Z,51.33
2022-12-18T01:33:53.511Z,51.03
2022-12-18T01:36:28.816Z,54.50
2022-12-18T01:39:00.201Z,48.30
2022-12-18T01:41:30.164Z,48.17
2022-12-18T01:43:58.802Z,48.60
2022-12-18T01:46:27.317Z,48.63
2022-12-18T01:49:02.263Z,59.40
2022-12-18T01:51:35.209Z,54.90
2022-12-18T01:54:05.026Z,52.97
2022-12-18T01:56:32.274Z,52.28
2022-12-18T01:59:09.046Z,57.92
2022-12-18T02:01:38.976Z,55.47
2022-12-18T02:04:23.029Z,52.08
2022-12-18T02:07:08.394Z,51.38
2022-12-18T02:09:47.760Z,51.22
2022-12-18T02:12:21.307Z,56.15
2022-12-18T02:15:05.817Z,53.65
2022-12-18T02:20:09.941Z,54.88
2022-12-18T02:22:59.275Z,46.47
2022-12-18T02:25:40.276Z,50.78
2022-12-18T02:28:12.763Z,51.63
2022-12-18T02:30:42.234Z,52.67
2022-12-18T02:33:12.077Z,53.15
2022-12-18T02:35:42.359Z,55.65
2022-12-18T02:38:10.389Z,55.67
2022-12-18T02:40:41.657Z,51.33
2022-12-18T02:43:14.908Z,51.55
2022-12-18T02:45:49.960Z,53.13
2022-12-18T02:48:20.001Z,50.17
2022-12-18T02:51:12.296Z,52.22
2022-12-18T02:53:43.139Z,50.80
2022-12-18T02:56:13.483Z,55.55
2022-12-18T02:59:10.687Z,49.85
2022-12-18T03:01:57.019Z,54.15
2022-12-18T03:04:33.267Z,59.15
2022-12-18T03:07:05.355Z,62.70
2022-12-18T03:09:44.530Z,61.22
2022-12-18T03:12:36.678Z,68.55
2022-12-18T03:15:17.868Z,60.78
2022-12-18T03:17:58.893Z,68.82
2022-12-18T03:20:29.553Z,78.38
2022-12-18T03:23:02.107Z,79.00
2022-12-18T03:25:32.430Z,80.47
2022-12-18T03:28:04.316Z,82.40
2022-12-18T03:30:34.884Z,88.00
2022-12-18T03:33:24.864Z,89.47
2022-12-18T03:35:52.111Z,80.25
2022-12-18T03:38:22.004Z,77.70
2022-12-18T03:41:07.306Z,72.82
2022-12-18T03:43:44.949Z,69.90
2022-12-18T03:46:53.320Z,74.38
2022-12-18T03:49:33.350Z,79.75
2022-12-18T03:52:06.094Z,79.47
2022-12-18T03:54:36.312Z,62.35
2022-12-18T03:57:10.929Z,77.70
2022-12-18T03:59:41.879Z,48.67
2022-12-18T04:02:10.450Z,50.03
2022-12-18T04:04:40.282Z,62.03
2022-12-18T04:07:10.911Z,74.28
2022-12-18T04:09:42.721Z,84.40
2022-12-18T04:12:10.457Z,81.05
2022-12-18T04:14:37.912Z,70.38
2022-12-18T04:17:04.929Z,73.57
2022-12-18T04:19:34.420Z,80.05
2022-12-18T04:22:04.239Z,95.28
2022-12-18T04:24:35.173Z,86.75
2022-12-18T04:27:03.087Z,87.85
2022-12-18T04:29:30.184Z,84.25
2022-12-18T04:32:00.441Z,81.20
2022-12-18T04:34:31.061Z,85.78
2022-12-18T04:37:03.545Z,78.47
2022-12-18T04:39:31.072Z,82.03
2022-12-18T04:41:58.398Z,73.72
2022-12-18T04:44:25.635Z,71.70
2022-12-18T04:46:53.122Z,66.95
2022-12-18T04:49:20.431Z,58.35
2022-12-18T04:51:50.102Z,53.95
2022-12-18T04:54:17.253Z,53.33
2022-12-18T04:56:44.608Z,55.63
2022-12-18T04:59:11.748Z,54.53
2022-12-18T05:01:39.274Z,56.17
2022-12-18T05:04:08.633Z,57.33
2022-12-18T05:06:36.065Z,63.50
2022-12-18T05:09:03.730Z,57.67
2022-12-18T05:11:31.115Z,58.22
2022-12-18T05:14:00.697Z,64.47
2022-12-18T05:16:28.183Z,64.28
2022-12-18T05:18:55.284Z,72.57
2022-12-18T05:21:22.800Z,81.20
2022-12-18T05:23:50.010Z,71.75
2022-12-18T05:26:19.074Z,75.40
2022-12-18T05:28:46.366Z,77.95
2022-12-18T05:31:16.700Z,81.10
2022-12-18T05:33:46.278Z,70.50
2022-12-18T05:36:13.758Z,75.25
2022-12-18T05:38:41.213Z,67.90
2022-12-18T05:41:09.526Z,94.13
2022-12-18T05:43:39.069Z,87.60
2022-12-18T05:46:08.652Z,88.70
2022-12-18T05:48:38.328Z,86.28
2022-12-18T05:51:11.646Z,83.10
2022-12-18T05:53:40.003Z,73.70
2022-12-18T05:56:11.545Z,82.60
2022-12-18T05:58:41.187Z,79.07
2022-12-18T06:01:14.230Z,78.00
2022-12-18T06:03:42.095Z,86.07
2022-12-18T06:06:26.394Z,78.75
2022-12-18T06:08:58.492Z,83.40
2022-12-18T06:11:27.605Z,77.90
2022-12-18T06:13:58.678Z,75.72
2022-12-18T06:16:28.596Z,85.35
2022-12-18T06:18:59.720Z,75.40
2022-12-18T06:21:28.189Z,67.60
2022-12-18T06:23:55.376Z,72.78
2022-12-18T06:26:27.775Z,70.65
2022-12-18T06:28:55.806Z,68.53
2022-12-18T06:31:23.244Z,64.75
2022-12-18T06:33:50.691Z,68.28
2022-12-18T06:36:18.332Z,64.35
2022-12-18T06:38:48.225Z,62.45
2022-12-18T06:41:19.839Z,68.15
2022-12-18T06:43:47.359Z,80.35
2022-12-18T06:46:15.182Z,75.90
2022-12-18T06:48:42.485Z,80.57
2022-12-18T06:51:09.936Z,77.15
2022-12-18T06:53:37.340Z,81.25
2022-12-18T06:56:10.703Z,82.75
2022-12-18T06:58:41.814Z,73.03
2022-12-18T07:01:11.851Z,64.35
2022-12-18T07:03:43.172Z,69.28
2022-12-18T07:06:19.901Z,69.55
2022-12-18T07:08:47.881Z,64.20
2022-12-18T07:11:18.911Z,57.38
2022-12-18T07:13:48.518Z,56.60
2022-12-18T07:16:24.865Z,60.53
2022-12-18T07:18:54.148Z,52.88
2022-12-18T07:21:22.432Z,59.75
2022-12-18T07:23:52.394Z,57.92
2022-12-18T07:26:23.524Z,55.90
2022-12-18T07:28:51.301Z,58.10
2022-12-18T07:31:21.835Z,55.15
2022-12-18T07:33:50.027Z,51.30
2022-12-18T07:36:26.198Z,46.95
2022-12-18T07:38:53.751Z,51.50
2022-12-18T07:41:23.351Z,54.28
2022-12-18T07:43:52.735Z,53.58
2022-12-18T07:46:23.041Z,53.88
2022-12-18T07:48:50.520Z,54.70
2022-12-18T07:51:19.066Z,54.60
2022-12-18T07:53:46.505Z,54.15
2022-12-18T07:56:32.424Z,54.95
2022-12-18T07:59:00.570Z,48.83
2022-12-18T08:01:28.459Z,53.67
2022-12-18T08:03:55.859Z,52.72
2022-12-18T08:06:26.214Z,61.40
2022-12-18T08:08:57.052Z,57.05
2022-12-18T08:11:26.935Z,54.63
2022-12-18T08:13:56.844Z,57.53
2022-12-18T08:16:29.969Z,56.28
2022-12-18T08:18:57.519Z,55.35
2022-12-18T08:21:27.498Z,51.10
2022-12-18T08:23:56.583Z,50.88
2022-12-18T08:26:25.902Z,50.65
2022-12-18T08:28:56.408Z,55.05
2022-12-18T08:31:25.115Z,54.10
2022-12-18T08:33:55.975Z,48.33
2022-12-18T08:36:24.740Z,48.65
2022-12-18T08:38:52.733Z,52.75
2022-12-18T08:41:21.265Z,53.15
2022-12-18T08:43:48.594Z,64.63
2022-12-18T08:46:19.161Z,61.63
2022-12-18T08:48:47.098Z,67.80
2022-12-18T08:51:16.625Z,68.65
2022-12-18T08:53:44.244Z,68.78
2022-12-18T08:56:15.022Z,71.10
2022-12-18T08:58:42.438Z,65.97
2022-12-18T09:01:13.495Z,61.60
2022-12-18T09:03:41.578Z,60.75
2022-12-18T09:06:09.560Z,61.03
2022-12-18T09:08:36.746Z,61.22
2022-12-18T09:11:04.347Z,65.80
2022-12-18T09:13:34.187Z,67.93
2022-12-18T09:16:04.151Z,65.53
2022-12-18T09:18:31.712Z,66.05
2022-12-18T09:20:58.721Z,62.20
2022-12-18T09:23:26.117Z,66.55
2022-12-18T09:25:59.262Z,64.22
2022-12-18T09:28:29.385Z,67.45
2022-12-18T09:30:56.784Z,65.63
2022-12-18T09:33:24.292Z,64.93
2022-12-18T09:35:51.701Z,65.28
2022-12-18T09:38:20.740Z,64.07
2022-12-18T09:40:54.798Z,62.90
2022-12-18T09:43:30.522Z,59.40
2022-12-18T09:46:06.194Z,57.60
2022-12-18T09:48:38.190Z,51.53
2022-12-18T09:51:21.450Z,48.33
2022-12-18T09:53:59.263Z,46.03
2022-12-18T09:56:30.056Z,44.38
2022-12-18T09:59:02.058Z,43.67
2022-12-18T10:01:41.426Z,41.78
2022-12-18T10:04:11.438Z,42.78
2022-12-18T10:06:54.739Z,45.03
2022-12-18T10:09:45.656Z,46.28
2022-12-18T10:12:23.654Z,45.45
2022-12-18T10:15:06.966Z,48.65
2022-12-18T10:17:58.507Z,51.80
2022-12-18T10:20:35.060Z,45.90
2022-12-18T10:23:13.058Z,51.80
2022-12-18T10:25:52.940Z,44.53
2022-12-18T10:28:23.441Z,39.83
2022-12-18T10:30:55.063Z,32.40
2022-12-18T10:33:32.487Z,33.38
2022-12-18T10:36:00.759Z,34.47
2022-12-18T10:38:32.405Z,34.80
2022-12-18T10:41:01.548Z,32.55
2022-12-18T10:43:38.842Z,34.15
2022-12-18T10:46:09.188Z,37.05
2022-12-18T10:48:48.522Z,34.92
2022-12-18T10:51:31.734Z,41.58
2022-12-18T10:56:32.462Z,39.25
2022-12-18T10:59:05.870Z,36.58
2022-12-18T11:01:54.988Z,34.22
2022-12-18T11:04:26.508Z,34.00
2022-12-18T11:07:09.480Z,33.25
2022-12-18T11:09:38.742Z,31.23
2022-12-18T11:12:19.896Z,34.13
2022-12-18T11:14:49.805Z,32.92
2022-12-18T11:17:26.448Z,35.17
2022-12-18T11:19:58.194Z,33.60
2022-12-18T11:22:31.037Z,34.80
2022-12-18T11:28:35.630Z,43.47
2022-12-18T11:31:21.254Z,42.20
2022-12-18T11:34:29.119Z,46.95
2022-12-18T11:37:01.790Z,48.70
2022-12-18T11:39:45.187Z,49.25
2022-12-18T11:42:25.223Z,47.13
2022-12-18T11:45:00.688Z,48.33
2022-12-18T11:47:50.990Z,46.35
2022-12-18T11:50:27.593Z,43.80
2022-12-18T11:53:00.426Z,40.47
2022-12-18T11:55:50.478Z,42.78
2022-12-18T11:58:41.407Z,44.95
2022-12-18T12:01:26.904Z,39.67
2022-12-18T12:03:54.391Z,39.55
2022-12-18T12:06:42.253Z,44.42
2022-12-18T12:09:12.267Z,45.72
2022-12-18T12:11:45.941Z,55.58
2022-12-18T12:14:22.027Z,43.47
2022-12-18T12:17:00.031Z,57.50
2022-12-18T12:19:51.387Z,61.13
2022-12-18T12:22:33.857Z,58.47
2022-12-18T12:25:12.888Z,60.85
2022-12-18T12:27:49.548Z,63.33
2022-12-18T12:30:16.863Z,69.25
2022-12-18T12:33:07.293Z,62.28
2022-12-18T12:36:21.909Z,60.35
2022-12-18T12:38:57.356Z,59.63
2022-12-18T12:41:33.050Z,57.20
2022-12-18T12:44:08.052Z,52.15
2022-12-18T12:46:41.642Z,53.47
2022-12-18T12:51:44.229Z,58.78
2022-12-18T12:54:22.415Z,57.95
2022-12-18T12:56:54.909Z,55.95
2022-12-18T12:59:25.633Z,56.10
2022-12-18T13:02:03.239Z,61.20
2022-12-18T13:04:56.197Z,52.17
2022-12-18T13:07:29.737Z,57.78
2022-12-18T13:13:16.497Z,59.70
2022-12-18T13:15:49.079Z,59.53
2022-12-18T13:18:22.761Z,62.00
2022-12-18T13:21:02.925Z,67.00
2022-12-18T13:23:36.582Z,65.28
2022-12-18T13:26:07.566Z,71.18
2022-12-18T13:28:47.606Z,64.75
2022-12-18T13:31:39.859Z,70.55
2022-12-18T13:34:29.508Z,69.65
2022-12-18T13:37:29.837Z,71.93
2022-12-18T13:39:56.998Z,77.97
2022-12-18T13:42:24.471Z,68.88
2022-12-18T13:44:51.747Z,57.13
2022-12-18T13:47:39.492Z,61.75
2022-12-18T13:50:36.044Z,62.92
2022-12-18T13:53:07.210Z,59.25
2022-12-18T13:55:38.110Z,62.65
2022-12-18T13:58:07.014Z,57.92
2022-12-18T14:00:34.742Z,58.50
2022-12-18T14:03:02.682Z,58.00
2022-12-18T14:05:32.511Z,60.30
2022-12-18T14:08:12.637Z,62.63
2022-12-18T14:10:49.923Z,56.97
2022-12-18T14:13:38.679Z,62.17
2022-12-18T14:16:07.721Z,62.92
2022-12-18T14:18:51.717Z,67.72
2022-12-18T14:21:27.822Z,65.97
2022-12-18T14:24:13.637Z,61.67
2022-12-18T14:26:41.232Z,63.58
2022-12-18T14:29:27.822Z,67.35
2022-12-18T14:32:11.830Z,65.10
2022-12-18T14:34:45.328Z,63.70
2022-12-18T14:37:14.330Z,82.65
2022-12-18T14:39:52.618Z,96.03
2022-12-18T14:42:19.944Z,102.90
2022-12-18T14:45:05.569Z,103.85
2022-12-18T14:47:35.202Z,110.45
2022-12-18T14:50:12.617Z,104.03
2022-12-18T14:52:40.000Z,108.63
2022-12-18T14:55:18.564Z,104.40
2022-12-18T14:57:46.919Z,109.82
2022-12-18T15:00:24.799Z,97.82
2022-12-18T15:02:56.107Z,105.95
2022-12-18T15:05:31.916Z,107.57
2022-12-18T15:08:03.188Z,111.32
2022-12-18T15:10:34.138Z,107.85
2022-12-18T15:13:01.633Z,112.82
2022-12-18T15:15:35.066Z,104.07
2022-12-18T15:18:10.178Z,87.68
2022-12-18T15:20:57.548Z,80.75
2022-12-18T15:23:39.744Z,81.45
2022-12-18T15:26:11.965Z,75.78
2022-12-18T15:28:45.228Z,75.00
2022-12-18T15:31:17.736Z,90.10
2022-12-18T15:33:46.623Z,80.80
2022-12-18T15:36:17.997Z,96.97
2022-12-18T15:38:51.651Z,92.73
2022-12-18T15:41:24.565Z,90.00
2022-12-18T15:43:54.531Z,58.60
2022-12-18T15:46:25.790Z,58.83
2022-12-18T15:48:59.751Z,67.70
2022-12-18T15:51:32.625Z,62.30
2022-12-18T15:54:02.372Z,64.00
2022-12-18T15:56:29.919Z,64.60
2022-12-18T15:58:59.731Z,71.13
2022-12-18T16:01:29.910Z,56.13
2022-12-18T16:03:57.775Z,58.88
2022-12-18T16:06:25.407Z,49.33
2022-12-18T16:08:54.911Z,43.55
2022-12-18T16:11:29.169Z,46.70
2022-12-18T16:13:56.668Z,68.15
2022-12-18T16:16:24.858Z,75.10
2022-12-18T16:18:52.681Z,100.75
2022-12-18T16:21:20.342Z,66.57
2022-12-18T16:23:48.770Z,106.38
2022-12-18T16:26:16.180Z,109.25
2022-12-18T16:28:48.234Z,70.63
2022-12-18T16:31:16.287Z,104.65
2022-12-18T16:33:44.132Z,89.57
2022-12-18T16:36:14.604Z,68.00
2022-12-18T16:38:41.651Z,78.30
2022-12-18T16:41:20.234Z,90.13
2022-12-18T16:43:53.059Z,82.47
2022-12-18T16:46:22.448Z,98.63
2022-12-18T16:48:49.726Z,106.72
2022-12-18T16:51:19.726Z,125.20
2022-12-18T16:53:46.905Z,121.32
2022-12-18T16:56:17.270Z,118.57
2022-12-18T16:58:44.393Z,91.50
2022-12-18T17:01:15.084Z,134.05
2022-12-18T17:03:42.724Z,124.63
2022-12-18T17:06:14.199Z,99.57
2022-12-18T17:08:41.453Z,121.38
2022-12-18T17:11:09.381Z,148.20
2022-12-18T17:13:36.526Z,133.88
2022-12-18T17:16:08.688Z,122.65
2022-12-18T17:18:36.229Z,147.27
2022-12-18T17:21:06.129Z,147.70
2022-12-18T17:23:33.551Z,154.25
2022-12-18T17:26:01.767Z,141.45
2022-12-18T17:28:31.368Z,145.63
2022-12-18T17:30:59.372Z,132.30
2022-12-18T17:33:27.726Z,144.43
2022-12-18T17:35:59.149Z,142.13
2022-12-18T17:38:26.564Z,154.38
2022-12-18T17:40:54.308Z,148.13
2022-12-18T17:43:24.075Z,139.48
2022-12-18T17:45:51.781Z,148.15
2022-12-18T17:48:19.047Z,133.80
2022-12-18T17:50:50.083Z,142.07
2022-12-18T17:53:19.713Z,141.50
2022-12-18T17:56:00.349Z,132.63
2022-12-18T17:58:28.938Z,109.95
2022-12-18T18:00:56.564Z,125.97
2022-12-18T18:03:23.833Z,134.48
2022-12-18T18:06:01.089Z,139.52
2022-12-18T18:08:29.282Z,148.07
2022-12-18T18:10:56.777Z,147.43
2022-12-18T18:13:27.939Z,141.30
2022-12-18T18:16:01.326Z,139.82
2022-12-18T18:18:29.425Z,126.00
2022-12-18T18:20:56.904Z,122.53
2022-12-18T18:23:26.691Z,111.85
2022-12-18T18:25:54.833Z,94.47
2022-12-18T18:28:22.559Z,106.93
2022-12-18T18:30:50.293Z,74.45
2022-12-18T18:33:17.667Z,73.32
2022-12-18T18:35:54.945Z,72.45
2022-12-18T18:38:22.402Z,105.93
2022-12-18T18:40:57.531Z,115.93
2022-12-18T18:43:25.374Z,122.30
2022-12-18T18:46:02.339Z,130.50
2022-12-18T18:48:33.460Z,141.43
2022-12-18T18:51:12.369Z,127.07
2022-12-18T18:53:44.450Z,127.05
2022-12-18T18:56:56.465Z,112.65
2022-12-18T18:59:02.447Z,106.45
2022-12-18T19:01:29.977Z,77.00
2022-12-18T19:03:57.111Z,89.03
2022-12-18T19:06:27.649Z,77.65
2022-12-18T19:08:56.704Z,48.45
2022-12-18T19:11:26.237Z,43.75
2022-12-18T19:13:56.713Z,31.40
2022-12-18T19:16:27.790Z,34.17
2022-12-18T19:19:01.437Z,40.03
2022-12-18T19:21:34.259Z,77.22
2022-12-18T19:24:02.785Z,89.90
2022-12-18T19:26:30.567Z,92.35
2022-12-18T19:29:04.496Z,90.10
2022-12-18T19:31:35.975Z,83.03
2022-12-18T19:34:06.147Z,88.22
2022-12-18T19:36:41.106Z,90.18
2022-12-18T19:39:15.504Z,84.20
2022-12-18T19:41:45.375Z,77.75
2022-12-18T19:44:15.097Z,82.28
2022-12-18T19:46:44.004Z,73.90
2022-12-18T19:49:12.056Z,62.95
2022-12-18T19:54:18.925Z,85.20
2022-12-18T19:56:46.997Z,80.93
2022-12-18T19:59:17.286Z,60.25
2022-12-18T20:01:44.725Z,29.17
2022-12-18T20:04:11.941Z,30.52
2022-12-18T20:06:53.395Z,23.35
2022-12-18T20:09:21.319Z,21.60
2022-12-18T20:11:49.217Z,25.70
2022-12-18T20:14:22.301Z,32.47
2022-12-18T20:16:52.613Z,34.33
2022-12-18T20:19:21.632Z,33.28
2022-12-18T20:21:54.100Z,25.75
2022-12-18T20:24:21.505Z,23.00
2022-12-18T20:26:51.281Z,23.48
2022-12-18T20:29:21.089Z,22.92
2022-12-18T20:31:48.828Z,18.77
2022-12-18T20:34:16.044Z,14.77
2022-12-18T20:36:46.780Z,14.25
2022-12-18T20:39:15.601Z,16.50
2022-12-18T20:41:43.335Z,13.88
2022-12-18T20:44:22.775Z,12.43
2022-12-18T20:46:57.204Z,13.15
2022-12-18T20:49:27.424Z,12.20
2022-12-18T20:51:57.605Z,13.40
2022-12-18T20:54:29.081Z,13.90
2022-12-18T20:56:57.608Z,14.20
2022-12-18T20:59:25.350Z,13.73
2022-12-18T21:01:53.111Z,14.13
2022-12-18T21:04:21.388Z,13.10
2022-12-18T21:06:54.190Z,12.75
2022-12-18T21:09:27.937Z,12.60
2022-12-18T21:12:00.758Z,12.05
2022-12-18T21:14:29.485Z,12.55
2022-12-18T21:16:57.703Z,12.43
2022-12-18T21:19:27.385Z,12.63
2022-12-18T21:21:57.124Z,13.10
2022-12-18T21:24:25.877Z,15.20
2022-12-18T21:26:55.866Z,14.38
2022-12-18T21:29:25.602Z,14.60
2022-12-18T21:31:56.223Z,12.57
2022-12-18T21:34:26.817Z,15.30
2022-12-18T21:36:56.370Z,16.58
2022-12-18T21:39:25.538Z,22.65
2022-12-18T21:41:53.492Z,12.73
2022-12-18T21:44:23.169Z,12.85
2022-12-18T21:46:55.839Z,14.13
2022-12-18T21:49:25.593Z,16.15
2022-12-18T21:51:55.547Z,16.73
2022-12-18T21:54:28.947Z,18.27
2022-12-18T21:59:40.549Z,15.57
2022-12-18T22:02:20.764Z,16.33
2022-12-18T22:04:48.667Z,14.60
2022-12-18T22:07:17.069Z,15.13
2022-12-18T22:09:44.459Z,14.15
2022-12-18T22:12:13.883Z,16.23
2022-12-18T22:14:41.061Z,14.98
2022-12-18T22:17:08.455Z,14.32
2022-12-18T22:19:42.690Z,11.70
2022-12-18T22:22:12.704Z,13.38
2022-12-18T22:24:41.990Z,12.07
2022-12-18T22:27:09.671Z,11.70
2022-12-18T22:29:37.272Z,13.68
2022-12-18T22:32:06.006Z,13.18
2022-12-18T22:34:36.873Z,11.57
2022-12-18T22:37:06.912Z,12.13
2022-12-18T22:39:34.007Z,10.93
2022-12-18T22:42:01.925Z,14.73
2022-12-18T22:44:29.234Z,12.07
2022-12-18T22:47:06.269Z,17.20
2022-12-18T22:49:35.706Z,16.08
2022-12-18T22:52:05.995Z,15.93
2022-12-18T22:54:33.130Z,13.23
2022-12-18T22:57:02.997Z,17.30
2022-12-18T22:59:30.370Z,13.70
2022-12-18T23:01:59.045Z,12.55
2022-12-18T23:04:36.498Z,12.18
2022-12-18T23:07:07.252Z,12.40
2022-12-18T23:09:35.242Z,14.45
2022-12-18T23:12:03.416Z,11.65
2022-12-18T23:14:30.785Z,13.40
2022-12-18T23:16:58.382Z,13.10
2022-12-18T23:19:25.526Z,9.23
2022-12-18T23:21:54.519Z,11.85
2022-12-18T23:24:23.908Z,14.82
2022-12-18T23:26:51.376Z,12.48
2022-12-18T23:29:18.600Z,11.65
2022-12-18T23:31:46.366Z,10.38
2022-12-18T23:34:16.200Z,10.52
2022-12-18T23:36:47.161Z,9.68
2022-12-18T23:39:23.257Z,14.27
2022-12-18T23:41:57.985Z,12.00
2022-12-18T23:44:27.730Z,12.90
2022-12-18T23:46:55.610Z,12.43
2022-12-18T23:49:22.914Z,9.05
2022-12-18T23:51:50.810Z,11.13
2022-12-18T23:54:18.932Z,11.43
2022-12-18T23:56:56.805Z,10.18
2022-12-18T23:59:25.530Z,10.32
